Time;durP1;ratioP1;P1;durP2;ratioP2;P2;SDS_P1;SDS_P2;PMS_P1;PMS_P2;Temp;Humidity;BMP_temperature;BMP_pressure;BME280_temperature;BME280_humidity;BME280_pressure;Samples;Min_cycle;Max_cycle;Signal;HPM_P1;HPM_P2
2022/07/26 00:00:34;;;;;;;16.13;14.50;;;21.80;99.90;23.20;96434.00;;;;5062425;28;20586;-86
2022/07/26 00:03:24;;;;;;;15.40;13.83;;;21.60;99.90;23.00;96431.00;;;;5062729;28;20433;-86
2022/07/26 00:06:13;;;;;;;15.97;13.20;;;21.70;99.90;22.70;96415.00;;;;5058280;28;20723;-86
2022/07/26 00:09:02;;;;;;;14.57;13.17;;;21.60;99.90;22.60;96402.00;;;;5068459;28;20225;-87
2022/07/26 00:11:51;;;;;;;14.63;13.03;;;21.50;99.90;22.90;96409.00;;;;5069025;28;20630;-86
2022/07/26 00:14:40;;;;;;;16.03;14.50;;;21.40;99.90;23.10;96403.00;;;;5068493;28;20250;-86
2022/07/26 00:17:30;;;;;;;14.23;12.77;;;21.40;99.90;23.10;96423.00;;;;5068481;28;20200;-86
2022/07/26 00:20:21;;;;;;;13.87;12.47;;;21.40;99.90;23.20;96419.00;;;;5064685;28;20209;-87
2022/07/26 00:23:10;;;;;;;15.63;14.07;;;21.40;99.90;23.40;96398.00;;;;5073505;28;20196;-87
2022/07/26 00:26:02;;;;;;;14.23;12.87;;;21.50;99.90;23.40;96395.00;;;;5073001;28;20443;-86
2022/07/26 00:28:50;;;;;;;14.53;13.07;;;21.70;99.90;23.00;96396.00;;;;5058280;28;20405;-86
2022/07/26 00:31:45;;;;;;;16.83;15.23;;;21.60;99.90;22.60;96396.00;;;;5060320;28;20221;-88
2022/07/26 00:34:34;;;;;;;15.03;13.57;;;21.50;99.90;22.80;96403.00;;;;5072824;28;20228;-86
2022/07/26 00:37:45;;;;;;;15.63;13.30;;;22.20;99.90;23.30;96401.00;;;;5068779;28;20211;-87
2022/07/26 00:40:38;;;;;;;15.43;13.90;;;21.80;99.90;23.40;96390.00;;;;5069272;28;20352;-86
2022/07/26 00:43:27;;;;;;;13.43;12.13;;;22.20;99.90;23.50;96386.00;;;;5068837;28;20206;-87
2022/07/26 00:46:22;;;;;;;15.87;13.83;;;21.50;99.90;23.40;96395.00;;;;5077950;28;20220;-87
2022/07/26 00:49:30;;;;;;;15.77;14.23;;;21.70;99.90;23.00;96409.00;;;;5067801;28;20270;-88
2022/07/26 01:01:10;;;;;;;;;;;;;;;;;;;;;
2022/07/26 01:04:17;;;;;;;9.13;8.33;;;21.90;99.90;22.80;96378.00;;;;5013049;28;20233;-87
2022/07/26 01:07:14;;;;;;;9.13;8.23;;;21.50;99.90;22.40;96382.00;;;;5023137;28;20626;-87
2022/07/26 01:14:50;;;;;;;10.40;9.40;;;21.10;99.90;23.00;96361.00;;;;5063081;28;20228;-89
2022/07/26 01:17:49;;;;;;;7.83;7.03;;;21.60;99.90;23.00;96356.00;;;;4988860;28;20371;-87
2022/07/26 01:21:44;;;;;;;7.97;7.23;;;22.00;99.90;23.00;96343.00;;;;5067373;28;20203;-87
2022/07/26 01:25:49;;;;;;;8.40;6.97;;;23.20;99.90;23.00;96336.00;;;;5049039;28;20219;-88
2022/07/26 01:29:38;;;;;;;;;;;;;;;;;;;;;
2022/07/26 01:32:32;;;;;;;7.40;6.60;;;20.00;99.90;23.00;96317.00;;;;5061544;28;20635;-88
2022/07/26 01:35:58;;;;;;;6.73;6.10;;;20.90;99.90;22.90;96322.00;;;;5073714;28;20224;-87
2022/07/26 01:44:30;;;;;;;8.00;6.37;;;21.40;99.90;22.50;96321.00;;;;4987845;28;20207;-87
2022/07/26 01:51:32;;;;;;;5.13;4.63;;;21.80;99.90;22.60;96347.00;;;;5019376;28;20203;-87
2022/07/26 01:59:54;;;;;;;6.67;5.13;;;21.60;99.90;22.90;96363.00;;;;5063661;28;20210;-88
2022/07/26 02:15:52;;;;;;;4.67;3.97;;;20.90;99.90;22.80;96371.00;;;;4856214;29;20230;-86
2022/07/26 02:18:41;;;;;;;4.43;3.50;;;21.30;99.90;23.00;96369.00;;;;4898444;29;20212;-87
2022/07/26 02:21:31;;;;;;;5.47;4.97;;;21.20;99.90;22.90;96377.00;;;;4906875;28;20209;-86
2022/07/26 02:24:29;;;;;;;4.53;3.70;;;21.20;99.90;22.90;96374.00;;;;4991243;28;20229;-87
2022/07/26 02:27:21;;;;;;;4.60;4.20;;;20.70;99.90;22.90;96374.00;;;;4994461;28;20600;-86
2022/07/26 02:30:38;;;;;;;3.83;3.30;;;21.20;99.90;22.60;96372.00;;;;4990538;28;20591;-86
2022/07/26 02:37:39;;;;;;;3.90;2.70;;;21.20;99.90;23.10;96370.00;;;;4984955;28;20214;-86
2022/07/26 02:40:35;;;;;;;2.33;2.13;;;21.30;99.90;23.10;96362.00;;;;4999818;28;20206;-90
2022/07/26 02:43:25;;;;;;;2.23;1.87;;;21.60;99.90;23.20;96355.00;;;;5044991;28;20205;-86
2022/07/26 02:46:14;;;;;;;2.57;2.10;;;21.30;99.90;23.20;96357.00;;;;5076399;28;20208;-88
2022/07/26 02:52:49;;;;;;;2.80;2.60;;;21.50;99.90;23.40;96350.00;;;;5070239;28;20207;-87
2022/07/26 02:56:20;;;;;;;4.53;2.23;;;21.50;99.90;23.30;96357.00;;;;5076822;28;20223;-87
2022/07/26 02:59:31;;;;;;;3.17;2.50;;;22.10;99.90;23.20;96344.00;;;;5080075;28;20215;-87
2022/07/26 03:02:21;;;;;;;2.27;2.03;;;22.10;99.90;23.20;96342.00;;;;5075463;28;20345;-87
2022/07/26 03:05:11;;;;;;;3.10;2.73;;;21.40;99.90;23.20;96357.00;;;;5076640;28;20219;-87
2022/07/26 03:08:00;;;;;;;2.33;2.13;;;21.70;99.90;23.30;96351.00;;;;5082774;28;20570;-88
2022/07/26 03:10:49;;;;;;;3.20;2.30;;;21.50;99.90;23.50;96352.00;;;;5072994;28;20211;-89
2022/07/26 03:13:38;;;;;;;2.77;2.53;;;22.50;99.90;23.60;96354.00;;;;5076148;28;20239;-89
2022/07/26 03:16:28;;;;;;;3.53;2.87;;;21.90;99.90;23.40;96342.00;;;;5066850;28;20192;-87
2022/07/26 03:19:17;;;;;;;2.77;2.33;;;21.60;99.90;23.60;96337.00;;;;5065018;28;20196;-87
2022/07/26 03:22:06;;;;;;;2.80;2.23;;;21.80;99.90;23.60;96340.00;;;;5075273;28;20196;-87
2022/07/26 03:24:55;;;;;;;2.50;2.20;;;21.70;99.90;23.50;96345.00;;;;5074591;28;20212;-87
2022/07/26 03:27:44;;;;;;;4.17;2.20;;;21.80;99.90;23.40;96347.00;;;;5074014;28;20218;-86
2022/07/26 03:30:33;;;;;;;2.97;2.67;;;21.70;99.90;23.60;96349.00;;;;5078217;28;20204;-87
2022/07/26 03:33:23;;;;;;;3.13;2.80;;;21.80;99.90;23.70;96360.00;;;;5077379;28;20211;-86
2022/07/26 03:36:12;;;;;;;4.13;2.37;;;21.90;99.90;23.60;96358.00;;;;5077623;28;20204;-86
2022/07/26 03:39:01;;;;;;;2.67;2.47;;;21.70;99.90;23.40;96361.00;;;;5074790;28;20222;-86
2022/07/26 03:41:50;;;;;;;7.23;2.27;;;21.80;99.90;23.40;96364.00;;;;5079593;28;20196;-86
2022/07/26 03:44:39;;;;;;;2.43;2.23;;;21.80;99.90;23.40;96366.00;;;;5083972;28;20220;-86
2022/07/26 03:47:28;;;;;;;2.47;2.27;;;21.70;99.90;23.20;96376.00;;;;5076883;28;20211;-87
2022/07/26 03:50:18;;;;;;;3.77;1.97;;;21.70;99.90;23.40;96381.00;;;;5076702;28;20200;-86
2022/07/26 03:53:07;;;;;;;2.30;2.00;;;21.70;99.90;23.40;96379.00;;;;5077423;28;20681;-87
2022/07/26 03:59:05;;;;;;;2.10;1.93;;;21.70;99.90;23.40;96374.00;;;;5068108;28;20784;-86
2022/07/26 04:01:54;;;;;;;3.30;2.23;;;21.60;99.90;23.50;96365.00;;;;5083009;28;20774;-86
2022/07/26 04:04:43;;;;;;;2.53;2.30;;;21.50;99.90;23.60;96366.00;;;;5068240;28;20216;-86
2022/07/26 04:07:33;;;;;;;2.63;2.20;;;21.90;99.90;23.60;96378.00;;;;5075799;28;20589;-86
2022/07/26 04:10:23;;;;;;;2.07;1.87;;;21.90;99.90;23.50;96372.00;;;;5072903;28;20649;-86
2022/07/26 04:13:12;;;;;;;2.67;2.00;;;21.70;99.90;23.70;96377.00;;;;5073118;28;20215;-86
2022/07/26 04:16:01;;;;;;;3.80;2.47;;;22.20;99.90;23.80;96376.00;;;;5074268;28;20606;-86
2022/07/26 04:18:49;;;;;;;2.67;2.20;;;21.90;99.90;23.70;96378.00;;;;5053548;28;20204;-86
2022/07/26 04:21:38;;;;;;;2.40;2.20;;;21.90;99.90;23.90;96389.00;;;;5072345;28;20207;-87
2022/07/26 04:24:29;;;;;;;2.40;2.20;;;21.90;99.90;23.90;96380.00;;;;5073405;28;20232;-86
2022/07/26 04:27:17;;;;;;;2.50;2.30;;;22.00;99.90;23.90;96393.00;;;;5070967;28;20215;-86
2022/07/26 04:30:08;;;;;;;2.13;1.97;;;22.00;99.90;23.90;96401.00;;;;5061148;28;20199;-86
2022/07/26 04:33:01;;;;;;;2.53;2.33;;;22.10;99.90;24.00;96399.00;;;;5083757;28;20211;-87
2022/07/26 04:35:51;;;;;;;2.13;1.93;;;22.10;99.90;23.90;96413.00;;;;5071435;28;20235;-87
2022/07/26 04:38:40;;;;;;;2.50;2.03;;;22.10;99.90;24.00;96423.00;;;;5073607;28;20196;-86
2022/07/26 04:41:30;;;;;;;4.33;2.20;;;22.20;99.90;23.90;96428.00;;;;5076741;28;20206;-86
2022/07/26 04:44:19;;;;;;;1.57;1.47;;;22.20;99.90;24.20;96431.00;;;;5073527;28;20231;-87
2022/07/26 04:47:08;;;;;;;1.90;1.63;;;22.30;99.90;24.30;96440.00;;;;5071383;28;20226;-86
2022/07/26 04:49:57;;;;;;;2.17;1.97;;;22.40;99.90;24.40;96440.00;;;;5064711;28;20204;-86
2022/07/26 04:52:46;;;;;;;1.80;1.53;;;22.30;99.90;24.30;96428.00;;;;5079022;28;20226;-87
2022/07/26 04:55:35;;;;;;;1.80;1.60;;;22.50;99.90;24.40;96416.00;;;;5073564;28;20266;-86
2022/07/26 04:58:26;;;;;;;2.30;2.10;;;22.40;99.90;24.40;96430.00;;;;5072718;28;20226;-87
2022/07/26 05:01:14;;;;;;;1.77;1.67;;;22.60;99.90;24.40;96434.00;;;;5081861;23;20951;-84
2022/07/26 05:04:03;;;;;;;2.27;1.60;;;22.50;99.90;24.50;96430.00;;;;5090928;28;20207;-82
2022/07/26 05:06:52;;;;;;;2.70;2.37;;;22.60;99.90;24.60;96439.00;;;;5092182;28;20203;-83
2022/07/26 05:09:41;;;;;;;2.30;1.90;;;22.70;99.90;24.60;96458.00;;;;5081846;28;20593;-85
2022/07/26 05:12:30;;;;;;;2.20;2.00;;;22.70;99.90;24.70;96475.00;;;;5065206;28;20833;-84
2022/07/26 05:15:20;;;;;;;1.93;1.73;;;22.70;99.90;24.60;96487.00;;;;5073254;28;20704;-84
2022/07/26 05:18:10;;;;;;;2.53;1.85;;;22.90;99.90;24.50;96499.00;;;;5069360;28;20392;-83
2022/07/26 05:20:58;;;;;;;1.37;1.27;;;22.80;99.90;24.60;96500.00;;;;5070515;28;20692;-83
2022/07/26 05:23:47;;;;;;;12.88;2.40;;;22.70;99.90;24.50;96502.00;;;;5065783;28;20395;-83
2022/07/26 05:26:36;;;;;;;1.77;1.67;;;22.70;99.90;24.50;96496.00;;;;5060053;28;20279;-83
2022/07/26 05:29:25;;;;;;;2.13;1.70;;;22.70;99.90;24.40;96531.00;;;;5072021;28;20208;-83
2022/07/26 05:32:15;;;;;;;1.60;1.30;;;22.60;99.90;24.40;96546.00;;;;5076339;28;20233;-83
2022/07/26 05:35:06;;;;;;;3.40;1.90;;;22.70;99.90;24.40;96550.00;;;;5061445;28;20853;-83
2022/07/26 05:37:55;;;;;;;2.10;1.90;;;22.60;99.90;24.50;96543.00;;;;5070500;28;20207;-83
2022/07/26 05:40:44;;;;;;;1.50;1.40;;;22.60;99.90;24.30;96531.00;;;;5070684;28;20232;-83
2022/07/26 05:43:36;;;;;;;4.13;1.87;;;22.60;99.90;24.30;96536.00;;;;5071669;28;20579;-86
2022/07/26 05:46:25;;;;;;;2.30;1.57;;;22.60;99.90;24.00;96541.00;;;;5059699;28;20207;-84
2022/07/26 05:49:15;;;;;;;2.53;1.30;;;22.60;99.90;23.60;96540.00;;;;5072336;28;20204;-85
2022/07/26 05:52:04;;;;;;;2.83;2.57;;;22.50;99.90;23.10;96535.00;;;;5069903;28;20254;-85
2022/07/26 05:54:53;;;;;;;1.90;1.30;;;22.10;99.90;23.30;96527.00;;;;5062731;28;20219;-84
2022/07/26 05:57:46;;;;;;;1.47;1.37;;;21.90;99.90;23.00;96518.00;;;;5066284;28;20223;-85
2022/07/26 06:00:35;;;;;;;4.70;2.97;;;21.70;99.90;22.90;96514.00;;;;5065536;28;20228;-83
2022/07/26 06:03:24;;;;;;;1.13;1.03;;;21.60;99.90;22.70;96505.00;;;;5071691;28;20204;-83
2022/07/26 06:06:14;;;;;;;4.03;1.67;;;21.50;99.90;22.20;96499.00;;;;5070730;28;20561;-83
2022/07/26 06:09:04;;;;;;;1.97;1.20;;;21.30;99.90;22.00;96508.00;;;;5078231;28;20301;-84
2022/07/26 06:11:53;;;;;;;1.50;1.40;;;21.10;99.90;21.60;96500.00;;;;5078832;28;20579;-84
2022/07/26 06:14:42;;;;;;;1.70;1.60;;;20.70;99.90;21.60;96504.00;;;;5070072;28;20200;-84
2022/07/26 06:17:31;;;;;;;2.10;1.60;;;20.60;99.90;21.60;96512.00;;;;5070680;28;20577;-83
2022/07/26 06:20:20;;;;;;;1.70;1.60;;;20.50;99.90;21.80;96505.00;;;;5071568;28;20224;-83
2022/07/26 06:23:11;;;;;;;1.40;1.30;;;20.40;99.90;21.50;96508.00;;;;5092972;22;20238;-75
2022/07/26 06:26:00;;;;;;;2.60;1.60;;;20.40;99.90;21.80;96503.00;;;;5084581;28;20242;-71
2022/07/26 06:28:50;;;;;;;1.63;1.40;;;20.30;99.90;21.80;96511.00;;;;5084205;28;20227;-70
2022/07/26 06:31:38;;;;;;;2.10;1.90;;;20.30;99.90;21.60;96500.00;;;;5076563;28;20582;-78
2022/07/26 06:34:27;;;;;;;1.70;1.60;;;20.40;99.90;21.80;96500.00;;;;5084940;28;20203;-72
2022/07/26 06:37:16;;;;;;;3.53;2.23;;;21.00;99.90;21.60;96492.00;;;;5082504;28;20207;-68
2022/07/26 06:40:09;;;;;;;2.10;1.40;;;20.50;99.90;21.60;96498.00;;;;5083158;28;20208;-69
2022/07/26 06:42:58;;;;;;;2.33;1.57;;;20.30;99.90;21.70;96501.00;;;;5080882;28;20238;-69
2022/07/26 06:45:50;;;;;;;1.70;1.60;;;20.20;99.90;21.50;96508.00;;;;5072018;28;20241;-69
2022/07/26 06:48:39;;;;;;;2.27;2.03;;;20.40;99.90;21.60;96499.00;;;;5076757;28;20553;-71
2022/07/26 06:51:28;;;;;;;2.27;2.03;;;20.20;99.90;21.50;96510.00;;;;5077578;28;20192;-68
2022/07/26 06:54:16;;;;;;;2.13;1.93;;;20.20;99.90;21.90;96506.00;;;;5078069;28;20207;-71
2022/07/26 06:57:07;;;;;;;3.77;2.30;;;20.30;99.90;21.80;96512.00;;;;5088327;28;20218;-69
2022/07/26 06:59:55;;;;;;;1.83;1.73;;;20.30;99.90;21.90;96506.00;;;;5074444;28;20208;-70
2022/07/26 07:02:44;;;;;;;2.30;2.10;;;20.40;99.90;22.00;96505.00;;;;5079111;28;20230;-69
2022/07/26 07:05:33;;;;;;;2.80;2.13;;;20.40;99.90;21.80;96503.00;;;;5079712;28;20219;-70
2022/07/26 07:08:23;;;;;;;2.80;2.07;;;20.30;99.90;22.20;96507.00;;;;5088140;28;20199;-70
2022/07/26 07:11:12;;;;;;;2.30;1.93;;;20.40;99.90;22.30;96504.00;;;;5089014;28;20210;-70
2022/07/26 07:14:02;;;;;;;2.07;1.63;;;20.50;99.90;21.90;96506.00;;;;5075971;28;20216;-72
2022/07/26 07:16:51;;;;;;;2.90;2.70;;;20.50;99.90;21.90;96509.00;;;;5082277;28;20209;-72
2022/07/26 07:19:40;;;;;;;5.60;2.43;;;20.50;99.90;21.70;96508.00;;;;5086982;28;20199;-74
2022/07/26 07:22:28;;;;;;;2.90;2.70;;;20.50;99.90;21.90;96515.00;;;;5085963;28;20719;-72
2022/07/26 07:25:17;;;;;;;2.63;2.43;;;20.60;99.90;22.00;96522.00;;;;5086726;28;20594;-73
2022/07/26 07:28:07;;;;;;;2.30;2.10;;;20.60;99.90;21.90;96521.00;;;;5083799;28;20204;-73
2022/07/26 07:30:57;;;;;;;2.37;1.90;;;20.70;99.90;21.60;96523.00;;;;5089672;28;20207;-69
2022/07/26 07:33:46;;;;;;;1.90;1.80;;;20.40;99.90;21.80;96533.00;;;;5087027;28;20233;-72
2022/07/26 07:36:35;;;;;;;2.17;1.97;;;20.30;99.90;22.10;96530.00;;;;5080665;28;20229;-72
2022/07/26 07:39:24;;;;;;;2.43;1.80;;;20.40;99.90;22.00;96535.00;;;;5083754;28;20589;-73
2022/07/26 07:42:13;;;;;;;1.73;1.60;;;20.50;99.90;21.90;96533.00;;;;5084992;28;20227;-71
2022/07/26 07:45:01;;;;;;;2.30;1.50;;;20.40;99.90;21.50;96533.00;;;;5093378;28;20199;-72
2022/07/26 07:47:51;;;;;;;1.87;1.67;;;20.50;99.90;21.80;96538.00;;;;5079074;28;20202;-74
2022/07/26 07:50:41;;;;;;;2.10;1.90;;;20.30;99.90;21.90;96541.00;;;;5084405;28;20203;-72
2022/07/26 07:53:30;;;;;;;2.17;1.93;;;20.50;99.90;22.10;96560.00;;;;5086989;28;20230;-73
2022/07/26 07:56:18;;;;;;;1.93;1.40;;;20.40;99.90;22.30;96560.00;;;;5087691;28;20207;-72
2022/07/26 07:59:07;;;;;;;2.27;2.10;;;20.60;99.90;22.10;96564.00;;;;5087564;28;20200;-71
2022/07/26 08:01:56;;;;;;;4.90;2.10;;;20.60;99.90;22.10;96572.00;;;;5084024;28;20199;-72
2022/07/26 08:04:46;;;;;;;2.10;1.70;;;20.80;99.90;21.80;96578.00;;;;5077374;28;20208;-70
2022/07/26 08:07:35;;;;;;;2.23;1.70;;;20.60;99.90;21.80;96583.00;;;;5088806;28;20221;-70
2022/07/26 08:10:24;;;;;;;2.83;1.90;;;20.60;99.90;22.30;96585.00;;;;5077287;28;20222;-70
2022/07/26 08:13:12;;;;;;;3.20;1.97;;;20.60;99.90;22.50;96592.00;;;;5086615;28;20230;-70
2022/07/26 08:16:01;;;;;;;1.77;1.67;;;19.60;99.90;22.30;96587.00;;;;5071535;28;20200;-74
2022/07/26 08:18:50;;;;;;;2.23;2.00;;;20.80;99.90;22.50;96581.00;;;;5074447;28;20192;-73
2022/07/26 08:21:45;;;;;;;2.10;1.87;;;20.90;99.90;22.60;96587.00;;;;5085996;28;20206;-73
2022/07/26 08:24:34;;;;;;;1.57;1.47;;;21.40;99.90;22.70;96581.00;;;;5086368;28;20570;-73
2022/07/26 08:27:23;;;;;;;2.00;1.60;;;20.80;99.90;22.80;96581.00;;;;5076429;28;20223;-73
2022/07/26 08:30:13;;;;;;;1.83;1.73;;;21.00;99.90;22.70;96586.00;;;;5081736;28;20734;-73
2022/07/26 08:33:01;;;;;;;2.27;1.83;;;21.50;99.90;23.00;96595.00;;;;5069294;28;20222;-72
2022/07/26 08:35:50;;;;;;;2.03;1.90;;;21.20;99.90;23.10;96601.00;;;;5080890;28;20195;-72
2022/07/26 08:38:42;;;;;;;2.83;2.40;;;21.30;99.90;22.80;96597.00;;;;5088450;28;20760;-70
2022/07/26 08:41:31;;;;;;;2.77;2.53;;;21.30;99.90;23.00;96592.00;;;;5085264;28;20200;-70
2022/07/26 08:44:20;;;;;;;2.50;2.30;;;21.30;99.90;23.50;96599.00;;;;5079326;22;20238;-87
2022/07/26 08:47:12;;;;;;;2.13;1.93;;;21.40;99.90;23.50;96596.00;;;;5091710;28;20230;-88
2022/07/26 08:50:00;;;;;;;2.07;1.87;;;21.70;99.90;23.60;96597.00;;;;5087163;28;20573;-87
2022/07/26 08:52:49;;;;;;;2.27;1.80;;;21.80;99.90;23.70;96596.00;;;;5077773;28;20671;-87
2022/07/26 08:55:40;;;;;;;3.50;1.60;;;22.00;99.90;23.90;96588.00;;;;5072372;28;20222;-86
2022/07/26 08:58:49;;;;;;;2.20;2.00;;;22.40;99.90;24.20;96593.00;;;;5075094;28;20266;-88
2022/07/26 09:01:55;;;;;;;1.80;1.63;;;22.30;99.90;24.70;96586.00;;;;5067173;28;20679;-85
2022/07/26 09:04:45;;;;;;;2.70;1.50;;;22.40;99.90;24.90;96591.00;;;;5070914;28;20207;-85
2022/07/26 09:07:34;;;;;;;2.10;1.93;;;22.70;99.90;25.40;96603.00;;;;5079603;28;20220;-85
2022/07/26 09:10:24;;;;;;;2.80;1.60;;;22.90;99.90;25.80;96607.00;;;;5080413;28;20191;-86
2022/07/26 09:13:15;;;;;;;2.30;1.80;;;23.30;99.90;26.20;96610.00;;;;5072046;28;20868;-85
2022/07/26 09:16:11;;;;;;;2.00;1.80;;;23.40;99.90;26.50;96611.00;;;;5078603;28;20199;-85
2022/07/26 09:19:16;;;;;;;2.20;2.00;;;23.70;99.90;26.90;96634.00;;;;5065316;28;20623;-85
2022/07/26 09:22:11;;;;;;;2.30;1.40;;;24.10;99.90;26.80;96637.00;;;;5074631;28;20239;-85
2022/07/26 09:24:59;;;;;;;3.63;2.10;;;24.30;99.90;26.90;96636.00;;;;5076867;28;20297;-85
2022/07/26 09:27:49;;;;;;;1.70;1.60;;;24.60;99.90;27.10;96630.00;;;;5058405;28;20706;-85
2022/07/26 09:30:51;;;;;;;3.50;2.20;;;24.90;99.90;27.30;96642.00;;;;5078762;28;20225;-86
2022/07/26 09:33:45;;;;;;;4.43;1.70;;;24.90;99.90;27.50;96647.00;;;;5067543;28;20231;-85
2022/07/26 09:36:50;;;;;;;2.30;2.10;;;25.10;99.90;27.70;96635.00;;;;5067811;28;20804;-85
2022/07/26 09:40:02;;;;;;;3.40;2.13;;;25.20;99.90;27.80;96635.00;;;;5069867;28;20212;-85
2022/07/26 09:42:56;;;;;;;2.00;1.77;;;25.50;99.90;27.70;96633.00;;;;5072740;28;20233;-85
2022/07/26 09:45:46;;;;;;;2.37;1.60;;;25.50;99.90;27.70;96634.00;;;;5067138;28;20209;-85
2022/07/26 09:48:38;;;;;;;3.37;2.00;;;25.60;99.90;26.70;96643.00;;;;5090569;28;20236;-86
2022/07/26 09:51:49;;;;;;;4.37;1.63;;;25.40;99.90;27.00;96645.00;;;;5074890;28;20283;-85
2022/07/26 09:54:40;;;;;;;4.83;2.10;;;25.30;99.90;26.90;96654.00;;;;5071687;28;20582;-85
2022/07/26 09:57:29;;;;;;;2.23;2.03;;;25.20;99.90;27.00;96661.00;;;;5075418;28;20209;-85
2022/07/26 10:00:18;;;;;;;4.30;2.30;;;25.20;99.90;26.10;96661.00;;;;5069801;28;20202;-85
2022/07/26 10:03:08;;;;;;;4.00;2.03;;;25.00;99.90;25.90;96665.00;;;;5067060;28;20240;-86
2022/07/26 10:05:57;;;;;;;4.80;1.87;;;24.80;99.90;26.40;96669.00;;;;5069507;28;20210;-85
2022/07/26 10:08:47;;;;;;;2.23;1.70;;;24.80;99.90;26.50;96664.00;;;;5069354;28;20626;-86
2022/07/26 10:11:44;;;;;;;2.83;1.77;;;24.80;99.90;26.60;96668.00;;;;5070283;28;20204;-86
2022/07/26 10:14:40;;;;;;;2.07;1.80;;;24.80;99.90;26.90;96667.00;;;;5061669;28;20200;-88
2022/07/26 10:17:46;;;;;;;2.73;2.07;;;24.70;99.90;27.20;96665.00;;;;5063751;28;20220;-86
2022/07/26 10:20:46;;;;;;;1.77;1.50;;;24.90;99.90;27.10;96660.00;;;;5063708;28;20218;-85
2022/07/26 10:23:41;;;;;;;2.20;1.53;;;24.90;99.90;26.90;96664.00;;;;5061944;28;20733;-86
2022/07/26 10:26:39;;;;;;;1.80;1.70;;;25.10;99.90;27.20;96668.00;;;;5067516;28;20201;-87
2022/07/26 10:29:28;;;;;;;2.17;1.80;;;25.30;99.90;27.40;96655.00;;;;5066540;28;20205;-87
2022/07/26 10:32:19;;;;;;;4.97;2.20;;;25.10;99.90;27.50;96659.00;;;;5068861;28;20690;-85
2022/07/26 10:35:32;;;;;;;2.70;2.20;;;25.20;99.90;27.80;96661.00;;;;5062912;28;20201;-87
2022/07/26 10:38:28;;;;;;;2.40;1.70;;;25.40;99.90;28.10;96655.00;;;;5068174;28;20198;-86
2022/07/26 10:41:32;;;;;;;6.50;1.53;;;25.60;99.90;27.80;96651.00;;;;5066536;28;20203;-85
2022/07/26 10:44:26;;;;;;;3.47;2.43;;;25.80;99.90;28.00;96641.00;;;;5065862;28;20207;-86
2022/07/26 10:47:17;;;;;;;3.10;2.13;;;25.90;99.90;28.00;96637.00;;;;5063119;28;20229;-85
2022/07/26 10:50:07;;;;;;;3.57;2.10;;;25.90;99.90;28.40;96639.00;;;;5070279;28;20575;-86
2022/07/26 10:52:59;;;;;;;4.40;1.90;;;26.30;99.90;28.60;96620.00;;;;5067113;28;20228;-85
2022/07/26 10:55:55;;;;;;;4.17;2.90;;;26.40;99.90;28.20;96626.00;;;;5066878;28;20211;-85
2022/07/26 10:58:44;;;;;;;2.63;1.90;;;27.10;99.90;28.70;96634.00;;;;5053575;28;20212;-85
2022/07/26 11:01:34;;;;;;;2.70;1.60;;;27.00;99.90;28.20;96627.00;;;;5067772;28;20214;-86
2022/07/26 11:04:23;;;;;;;2.27;2.07;;;26.60;99.90;28.90;96637.00;;;;5062490;28;20218;-85
2022/07/26 11:07:12;;;;;;;1.67;1.50;;;26.70;99.90;29.00;96630.00;;;;5062451;28;20474;-85
2022/07/26 11:10:01;;;;;;;1.93;1.73;;;26.80;99.90;29.50;96631.00;;;;5055579;28;20210;-85
2022/07/26 11:13:01;;;;;;;2.03;1.73;;;27.10;99.90;30.30;96629.00;;;;5065444;28;20226;-85
2022/07/26 11:15:53;;;;;;;2.17;1.43;;;27.30;99.90;30.70;96628.00;;;;5062861;28;20203;-85
2022/07/26 11:18:41;;;;;;;3.10;2.30;;;27.70;99.90;30.90;96629.00;;;;5060711;28;20201;-85
2022/07/26 11:21:30;;;;;;;2.40;2.10;;;28.00;99.90;31.10;96623.00;;;;5062762;28;20203;-85
2022/07/26 11:24:20;;;;;;;4.67;1.90;;;28.30;99.20;31.10;96615.00;;;;5067567;28;20560;-85
2022/07/26 11:27:09;;;;;;;2.97;2.10;;;28.60;97.30;31.60;96608.00;;;;5057726;28;20198;-85
2022/07/26 11:30:05;;;;;;;3.00;1.80;;;28.80;97.20;31.90;96617.00;;;;5062377;28;20220;-86
2022/07/26 11:32:57;;;;;;;2.03;1.58;;;29.10;96.80;32.00;96610.00;;;;5062158;28;20226;-86
2022/07/26 11:35:51;;;;;;;2.10;1.90;;;29.30;95.70;31.80;96613.00;;;;5064280;28;20207;-86
2022/07/26 11:38:48;;;;;;;3.00;1.85;;;29.40;93.80;31.80;96613.00;;;;5069050;28;20586;-86
2022/07/26 11:41:37;;;;;;;4.10;2.55;;;29.50;95.30;31.90;96616.00;;;;5076926;28;20209;-86
2022/07/26 11:44:27;;;;;;;3.97;2.30;;;29.60;94.70;31.60;96616.00;;;;5079889;28;20408;-86
2022/07/26 11:47:20;;;;;;;2.72;2.10;;;29.60;93.70;31.80;96615.00;;;;5074960;28;20214;-86
2022/07/26 11:50:10;;;;;;;2.92;2.55;;;29.80;92.90;32.50;96617.00;;;;5062912;28;20202;-86
2022/07/26 11:53:01;;;;;;;3.90;2.30;;;29.90;94.00;32.60;96612.00;;;;5067398;28;20720;-86
2022/07/26 11:55:50;;;;;;;2.35;2.15;;;30.00;94.30;32.40;96605.00;;;;5073779;28;20202;-86
2022/07/26 11:58:41;;;;;;;3.05;1.92;;;30.10;92.40;33.10;96598.00;;;;5066913;28;20213;-86
2022/07/26 12:01:33;;;;;;;2.65;2.10;;;30.30;92.50;33.50;96585.00;;;;5070054;28;20210;-86
2022/07/26 12:04:26;;;;;;;2.50;2.30;;;30.60;91.50;33.20;96592.00;;;;5067248;28;20203;-85
2022/07/26 12:07:20;;;;;;;2.17;1.98;;;30.90;90.70;33.50;96591.00;;;;5071056;28;20205;-86
2022/07/26 12:10:16;;;;;;;2.35;2.15;;;31.50;90.30;34.10;96594.00;;;;5070291;28;20210;-86
2022/07/26 12:13:10;;;;;;;3.63;2.30;;;31.20;89.50;33.90;96602.00;;;;5068427;28;20437;-86
2022/07/26 12:15:59;;;;;;;3.08;2.78;;;31.50;89.10;34.00;96625.00;;;;5069091;28;20213;-86
2022/07/26 12:18:51;;;;;;;2.67;2.08;;;31.40;89.40;32.50;96631.00;;;;5072183;28;20201;-86
2022/07/26 12:21:47;;;;;;;2.80;2.30;;;31.10;85.00;32.70;96594.00;;;;5070523;28;20208;-85
2022/07/26 12:24:54;;;;;;;4.50;2.25;;;31.00;87.00;33.10;96616.00;;;;5075733;28;20232;-86
2022/07/26 12:27:46;;;;;;;2.63;2.42;;;30.90;85.70;33.10;96615.00;;;;5062783;28;20206;-86
2022/07/26 12:30:36;;;;;;;3.00;2.10;;;30.90;85.30;32.70;96568.00;;;;5068764;28;20845;-86
2022/07/26 12:33:25;;;;;;;2.80;2.33;;;30.90;83.90;33.40;96576.00;;;;5064331;28;20595;-85
2022/07/26 12:36:20;;;;;;;4.22;2.55;;;31.00;84.10;31.90;96563.00;;;;5062972;28;20214;-85
2022/07/26 12:39:20;;;;;;;2.65;2.45;;;30.80;78.90;32.10;96565.00;;;;5067881;28;20198;-86
2022/07/26 12:42:23;;;;;;;2.95;2.70;;;30.60;81.60;32.00;96558.00;;;;5065125;28;20233;-85
2022/07/26 12:45:13;;;;;;;2.83;2.38;;;30.50;79.00;32.30;96551.00;;;;5068066;28;20215;-86
2022/07/26 12:48:08;;;;;;;3.35;2.20;;;30.40;79.20;33.60;96540.00;;;;5071721;28;20616;-86
2022/07/26 12:50:58;;;;;;;2.13;1.70;;;30.70;81.10;33.20;96560.00;;;;5068299;28;20752;-86
2022/07/26 12:53:46;;;;;;;2.42;2.22;;;31.00;78.60;32.30;96560.00;;;;5067199;28;20238;-86
2022/07/26 12:56:37;;;;;;;2.35;2.15;;;30.90;78.30;34.00;96541.00;;;;5066788;28;20209;-86
2022/07/26 12:59:26;;;;;;;2.53;2.08;;;31.10;80.40;34.20;96550.00;;;;5072819;28;20199;-86
2022/07/26 13:02:15;;;;;;;3.53;2.53;;;31.50;81.80;34.50;96536.00;;;;5070623;28;20230;-86
2022/07/26 13:05:05;;;;;;;4.03;2.40;;;31.80;78.00;33.70;96521.00;;;;5074360;28;20218;-85
2022/07/26 13:07:54;;;;;;;2.72;2.22;;;32.00;75.30;33.40;96526.00;;;;5076426;28;20218;-86
2022/07/26 13:10:43;;;;;;;9.30;2.80;;;32.00;72.90;34.60;96572.00;;;;5060226;28;20211;-86
2022/07/26 13:13:33;;;;;;;2.40;2.30;;;32.10;77.70;33.70;96533.00;;;;5073369;28;20223;-85
2022/07/26 13:16:22;;;;;;;2.38;2.08;;;32.00;75.90;34.30;96555.00;;;;5064139;28;20192;-86
2022/07/26 13:19:10;;;;;;;2.85;2.60;;;32.10;74.40;33.30;96568.00;;;;5061222;28;20218;-87
2022/07/26 13:22:01;;;;;;;3.30;3.00;;;32.10;70.90;33.10;96510.00;;;;5068353;28;20263;-86
2022/07/26 13:24:49;;;;;;;2.10;1.90;;;31.80;71.20;31.90;96571.00;;;;5072785;28;20721;-86
2022/07/26 13:27:38;;;;;;;3.30;2.10;;;31.00;73.10;29.80;96569.00;;;;5077375;28;20671;-86
2022/07/26 13:30:30;;;;;;;2.40;2.20;;;30.20;76.40;30.00;96564.00;;;;5075232;28;20251;-86
2022/07/26 13:33:19;;;;;;;3.72;2.30;;;29.50;78.40;31.00;96542.00;;;;5063969;28;20220;-85
2022/07/26 13:36:08;;;;;;;3.97;2.28;;;29.40;80.10;31.30;96556.00;;;;5070682;28;20201;-85
2022/07/26 13:38:57;;;;;;;2.75;2.50;;;29.50;81.80;31.00;96550.00;;;;5067961;28;20232;-85